Time;durP1;ratioP1;P1;durP2;ratioP2;P2;SDS_P1;SDS_P2;PMS_P1;PMS_P2;Temp;Humidity;BMP_temperature;BMP_pressure;BME280_temperature;BME280_humidity;BME280_pressure;Samples;Min_cycle;Max_cycle;Signal;HPM_P1;HPM_P2
2022/02/12 00:00:14;;;;;;;11.00;4.10;;;;;;;;;;5028788;28;20045;-35
2022/02/12 00:02:41;;;;;;;9.80;3.10;;;;;;;;;;5030653;28;20038;-35
2022/02/12 00:05:08;;;;;;;11.07;3.90;;;;;;;;;;5031094;28;20048;-35
2022/02/12 00:07:34;;;;;;;9.68;3.03;;;;;;;;;;5031096;28;20013;-35
2022/02/12 00:10:00;;;;;;;7.82;3.35;;;;;;;;;;5030647;28;20163;-34
2022/02/12 00:12:26;;;;;;;8.55;3.58;;;;;;;;;;5031346;28;20097;-35
2022/02/12 00:14:55;;;;;;;11.10;3.88;;;;;;;;;;5030582;28;20452;-34
2022/02/12 00:17:21;;;;;;;9.33;3.30;;;;;;;;;;5030337;28;20030;-35
2022/02/12 00:19:48;;;;;;;9.02;3.50;;;;;;;;;;5030758;28;20026;-34
2022/02/12 00:22:14;;;;;;;9.60;4.03;;;;;;;;;;5027842;28;20038;-35
2022/02/12 00:24:40;;;;;;;9.45;3.08;;;;;;;;;;5029829;28;20802;-35
2022/02/12 00:27:06;;;;;;;10.75;3.83;;;;;;;;;;5030710;28;20080;-35
2022/02/12 00:29:32;;;;;;;9.00;3.60;;;;;;;;;;5030679;28;20033;-34
2022/02/12 00:31:58;;;;;;;9.80;3.85;;;;;;;;;;5030087;28;20093;-34
2022/02/12 00:34:24;;;;;;;11.45;3.97;;;;;;;;;;5029702;28;20448;-35
2022/02/12 00:36:50;;;;;;;8.15;3.35;;;;;;;;;;5030506;28;20558;-34
2022/02/12 00:39:16;;;;;;;8.93;4.22;;;;;;;;;;5031289;28;20105;-35
2022/02/12 00:41:42;;;;;;;8.52;3.17;;;;;;;;;;5030328;28;21453;-35
2022/02/12 00:44:08;;;;;;;11.88;3.60;;;;;;;;;;5030864;28;20120;-34
2022/02/12 00:46:34;;;;;;;8.40;3.22;;;;;;;;;;5030438;28;20503;-34
2022/02/12 00:49:03;;;;;;;8.95;3.35;;;;;;;;;;5030091;28;20103;-34
2022/02/12 00:51:29;;;;;;;8.15;3.47;;;;;;;;;;5029975;28;20057;-34
2022/02/12 00:53:55;;;;;;;8.63;3.47;;;;;;;;;;5030499;28;20056;-35
2022/02/12 00:56:21;;;;;;;9.70;3.08;;;;;;;;;;5030204;28;20391;-35
2022/02/12 00:58:47;;;;;;;10.43;3.17;;;;;;;;;;5030559;28;20021;-35
2022/02/12 01:01:13;;;;;;;9.10;3.72;;;;;;;;;;5029994;28;20045;-34
2022/02/12 01:03:39;;;;;;;10.30;3.83;;;;;;;;;;5029235;28;20051;-35
2022/02/12 01:06:05;;;;;;;10.20;3.28;;;;;;;;;;5030127;28;20032;-34
2022/02/12 01:08:31;;;;;;;9.63;3.33;;;;;;;;;;5030144;28;20041;-34
2022/02/12 01:10:57;;;;;;;7.07;3.40;;;;;;;;;;5029668;28;20021;-34
2022/02/12 01:13:24;;;;;;;10.43;3.55;;;;;;;;;;5030378;28;20386;-34
2022/02/12 01:15:50;;;;;;;10.43;3.03;;;;;;;;;;5029799;28;20109;-34
2022/02/12 01:18:17;;;;;;;9.68;3.35;;;;;;;;;;5029286;28;20827;-34
2022/02/12 01:20:43;;;;;;;8.48;3.28;;;;;;;;;;5030575;28;20679;-34
2022/02/12 01:23:10;;;;;;;7.65;3.35;;;;;;;;;;5029705;28;20539;-34
2022/02/12 01:25:36;;;;;;;9.20;3.70;;;;;;;;;;5030035;28;20119;-34
2022/02/12 01:28:02;;;;;;;7.97;3.45;;;;;;;;;;5029269;28;20049;-34
2022/02/12 01:30:28;;;;;;;8.70;3.22;;;;;;;;;;5030315;28;20030;-34
2022/02/12 01:32:55;;;;;;;6.10;3.25;;;;;;;;;;5029247;28;20033;-34
2022/02/12 01:35:23;;;;;;;8.48;3.53;;;;;;;;;;5030011;28;20463;-34
2022/02/12 01:37:52;;;;;;;8.98;3.97;;;;;;;;;;5026129;28;20144;-34
2022/02/12 01:40:21;;;;;;;8.77;3.95;;;;;;;;;;5026694;28;20152;-34
2022/02/12 01:42:47;;;;;;;7.15;3.00;;;;;;;;;;5029326;28;20059;-34
2022/02/12 01:45:14;;;;;;;9.45;3.10;;;;;;;;;;5029642;28;20017;-34
2022/02/12 01:47:40;;;;;;;7.68;3.03;;;;;;;;;;5029149;28;20100;-34
2022/02/12 01:50:06;;;;;;;7.53;2.97;;;;;;;;;;5018100;28;20157;-34
2022/02/12 01:52:34;;;;;;;8.55;3.05;;;;;;;;;;5016425;28;20071;-34
2022/02/12 01:55:01;;;;;;;6.63;2.92;;;;;;;;;;5029524;28;20026;-34
2022/02/12 01:57:27;;;;;;;6.60;2.67;;;;;;;;;;5029133;28;20017;-34
2022/02/12 01:59:53;;;;;;;7.70;2.60;;;;;;;;;;5029356;28;20105;-34
2022/02/12 02:02:20;;;;;;;9.00;3.45;;;;;;;;;;5029449;28;20200;-34
2022/02/12 02:04:46;;;;;;;7.18;2.63;;;;;;;;;;5025986;28;20017;-34
2022/02/12 02:07:13;;;;;;;7.03;2.90;;;;;;;;;;5029530;28;20032;-34
2022/02/12 02:09:39;;;;;;;6.53;2.78;;;;;;;;;;5028671;28;20046;-33
2022/02/12 02:12:05;;;;;;;6.07;2.70;;;;;;;;;;5029624;28;20021;-34
2022/02/12 02:14:32;;;;;;;7.93;3.10;;;;;;;;;;5028993;28;20104;-34
2022/02/12 02:16:58;;;;;;;8.10;3.22;;;;;;;;;;5010211;28;20060;-33
2022/02/12 02:19:25;;;;;;;7.95;3.30;;;;;;;;;;5018431;28;20044;-34
2022/02/12 02:21:53;;;;;;;7.05;3.40;;;;;;;;;;5027682;28;20112;-34
2022/02/12 02:24:20;;;;;;;7.60;3.13;;;;;;;;;;5029471;28;20033;-34
2022/02/12 02:26:46;;;;;;;9.45;4.13;;;;;;;;;;5029060;28;20045;-33
2022/02/12 02:29:12;;;;;;;6.72;3.40;;;;;;;;;;5028753;28;20037;-34
2022/02/12 02:31:38;;;;;;;8.43;2.95;;;;;;;;;;5029561;28;20444;-34
2022/02/12 02:34:07;;;;;;;6.65;3.00;;;;;;;;;;5026592;28;20133;-33
2022/02/12 02:36:33;;;;;;;9.43;3.55;;;;;;;;;;5028928;28;20367;-33
2022/02/12 02:38:59;;;;;;;8.65;3.53;;;;;;;;;;5029121;28;20499;-34
2022/02/12 02:41:26;;;;;;;7.20;3.15;;;;;;;;;;5028947;28;20049;-34
2022/02/12 02:43:52;;;;;;;7.40;3.05;;;;;;;;;;5029403;28;20148;-34
2022/02/12 02:46:19;;;;;;;8.35;3.08;;;;;;;;;;5029190;28;20113;-34
2022/02/12 02:48:46;;;;;;;7.97;3.10;;;;;;;;;;5025945;28;20126;-34
2022/02/12 02:56:42;;;;;;;6.82;2.90;;;;;;;;;;5025383;28;20048;-34
2022/02/12 02:59:08;;;;;;;7.53;3.10;;;;;;;;;;5029253;28;20108;-34
2022/02/12 03:01:35;;;;;;;6.93;3.17;;;;;;;;;;5029239;28;20066;-34
2022/02/12 03:04:02;;;;;;;7.43;3.13;;;;;;;;;;5029428;28;20381;-34
2022/02/12 03:06:28;;;;;;;9.23;3.00;;;;;;;;;;5029040;28;20018;-34
2022/02/12 03:08:56;;;;;;;9.05;2.95;;;;;;;;;;5028692;28;20041;-35
2022/02/12 03:11:22;;;;;;;9.52;2.67;;;;;;;;;;5020149;28;20022;-34
2022/02/12 03:13:49;;;;;;;8.75;3.33;;;;;;;;;;5028873;28;20083;-33
2022/02/12 03:16:15;;;;;;;9.55;3.50;;;;;;;;;;5028429;28;20524;-34
2022/02/12 03:18:42;;;;;;;5.82;2.92;;;;;;;;;;5029034;28;20034;-34
2022/02/12 03:21:08;;;;;;;7.72;2.70;;;;;;;;;;5021415;28;20040;-35
2022/02/12 03:23:35;;;;;;;6.75;2.35;;;;;;;;;;5029319;28;20064;-35
2022/02/12 03:26:01;;;;;;;8.05;3.50;;;;;;;;;;5028621;28;20025;-34
2022/02/12 03:28:27;;;;;;;7.25;3.75;;;;;;;;;;5032788;28;20456;-34
2022/02/12 03:30:53;;;;;;;6.10;2.63;;;;;;;;;;5031961;28;20021;-34
2022/02/12 03:33:19;;;;;;;6.15;2.95;;;;;;;;;;5032415;28;20742;-34
2022/02/12 03:35:46;;;;;;;6.13;2.80;;;;;;;;;;5032186;28;20108;-34
2022/02/12 03:38:13;;;;;;;6.65;2.97;;;;;;;;;;5032153;28;20071;-34
2022/02/12 03:40:42;;;;;;;9.80;3.30;;;;;;;;;;5032482;28;20041;-34
2022/02/12 03:43:08;;;;;;;7.50;2.83;;;;;;;;;;5031402;28;20028;-33
2022/02/12 03:45:34;;;;;;;7.25;2.83;;;;;;;;;;5032510;28;20120;-34
2022/02/12 03:48:00;;;;;;;9.73;2.83;;;;;;;;;;5031788;28;20463;-34
2022/02/12 03:50:31;;;;;;;6.20;2.53;;;;;;;;;;5019437;28;20381;-34
2022/02/12 03:52:57;;;;;;;6.75;2.97;;;;;;;;;;5030223;28;20036;-34
2022/02/12 03:55:24;;;;;;;7.72;2.97;;;;;;;;;;5032421;28;20057;-33
2022/02/12 03:57:50;;;;;;;8.07;2.85;;;;;;;;;;5027188;28;20491;-35
2022/02/12 04:00:16;;;;;;;7.45;2.88;;;;;;;;;;5032007;28;20037;-35
2022/02/12 04:02:43;;;;;;;6.85;2.70;;;;;;;;;;5031811;28;20064;-35
2022/02/12 04:05:11;;;;;;;9.43;3.10;;;;;;;;;;5032238;28;20124;-34
2022/02/12 04:07:40;;;;;;;7.90;3.08;;;;;;;;;;5032167;28;20120;-35
2022/02/12 04:10:06;;;;;;;9.90;3.38;;;;;;;;;;5032086;28;20033;-34
2022/02/12 04:12:33;;;;;;;7.45;2.72;;;;;;;;;;5031149;28;20096;-33
2022/02/12 04:14:59;;;;;;;8.77;3.15;;;;;;;;;;5031288;28;20029;-34
2022/02/12 04:17:25;;;;;;;7.20;2.80;;;;;;;;;;5031813;28;20033;-34
2022/02/12 04:19:51;;;;;;;9.45;2.97;;;;;;;;;;5031488;28;20041;-34
2022/02/12 04:22:18;;;;;;;13.70;3.45;;;;;;;;;;5030865;28;20547;-34
2022/02/12 04:24:44;;;;;;;7.95;3.22;;;;;;;;;;5031494;28;20572;-33
2022/02/12 04:27:10;;;;;;;6.75;2.63;;;;;;;;;;5030788;28;20053;-33
2022/02/12 04:29:38;;;;;;;8.75;3.35;;;;;;;;;;5030733;28;20559;-33
2022/02/12 04:32:05;;;;;;;8.75;3.05;;;;;;;;;;5031349;28;20835;-33
2022/02/12 04:34:31;;;;;;;5.70;2.47;;;;;;;;;;5030496;28;20108;-33
2022/02/12 04:36:57;;;;;;;6.65;2.63;;;;;;;;;;5014593;28;20026;-34
2022/02/12 04:39:23;;;;;;;6.03;2.70;;;;;;;;;;5028438;28;20033;-33
2022/02/12 04:41:49;;;;;;;8.70;2.70;;;;;;;;;;5017730;28;20118;-32
2022/02/12 04:44:15;;;;;;;5.15;2.35;;;;;;;;;;5026490;28;20115;-33
2022/02/12 04:46:41;;;;;;;7.88;2.72;;;;;;;;;;5031300;28;20033;-33
2022/02/12 04:49:07;;;;;;;7.38;2.85;;;;;;;;;;5030664;28;20091;-33
2022/02/12 04:51:34;;;;;;;6.38;2.50;;;;;;;;;;5031050;28;20092;-32
2022/02/12 04:54:00;;;;;;;8.43;2.85;;;;;;;;;;5029839;28;20136;-33
2022/02/12 04:56:26;;;;;;;7.13;2.72;;;;;;;;;;5018974;28;20065;-32
2022/02/12 04:58:52;;;;;;;5.88;2.60;;;;;;;;;;5017274;28;20022;-33
2022/02/12 05:01:23;;;;;;;6.63;2.65;;;;;;;;;;5029356;28;20563;-33
2022/02/12 05:03:49;;;;;;;;;;;;;;;;;;5029531;28;20017;-33
2022/02/12 05:06:15;;;;;;;7.75;3.40;;;;;;;;;;5029657;28;19910;-33
2022/02/12 05:08:41;;;;;;;7.35;2.78;;;;;;;;;;5029019;28;20030;-33
2022/02/12 05:11:07;;;;;;;9.90;3.47;;;;;;;;;;5027605;28;20028;-33
2022/02/12 05:13:33;;;;;;;12.13;3.15;;;;;;;;;;5028895;28;20029;-35
2022/02/12 05:15:59;;;;;;;7.35;2.88;;;;;;;;;;5029379;28;20041;-35
2022/02/12 05:18:25;;;;;;;12.05;2.78;;;;;;;;;;5030472;28;20030;-34
2022/02/12 05:20:51;;;;;;;9.00;3.08;;;;;;;;;;5028810;28;20053;-34
2022/02/12 05:23:17;;;;;;;7.60;3.55;;;;;;;;;;5029950;28;20040;-34
2022/02/12 05:25:43;;;;;;;9.05;3.30;;;;;;;;;;5028513;28;20464;-34
2022/02/12 05:28:09;;;;;;;11.27;2.83;;;;;;;;;;5030076;28;20543;-34
2022/02/12 05:30:36;;;;;;;8.18;2.78;;;;;;;;;;5029633;28;20104;-34
2022/02/12 05:33:02;;;;;;;10.90;3.22;;;;;;;;;;5030014;28;20590;-34
2022/02/12 05:35:28;;;;;;;7.93;2.88;;;;;;;;;;5028763;28;20124;-34
2022/02/12 05:37:54;;;;;;;10.15;3.95;;;;;;;;;;5029525;28;20459;-34
2022/02/12 05:40:20;;;;;;;6.80;2.78;;;;;;;;;;5027526;28;20125;-34
2022/02/12 05:42:46;;;;;;;9.18;3.00;;;;;;;;;;5029941;28;20433;-34
2022/02/12 05:45:12;;;;;;;9.13;3.50;;;;;;;;;;5029655;28;20114;-34
2022/02/12 05:47:41;;;;;;;10.55;3.75;;;;;;;;;;5029560;28;20543;-34
2022/02/12 05:50:08;;;;;;;9.35;3.30;;;;;;;;;;5027763;28;20038;-34
2022/02/12 05:52:34;;;;;;;10.60;3.45;;;;;;;;;;5029829;28;20025;-34
2022/02/12 05:55:00;;;;;;;9.52;3.33;;;;;;;;;;5028001;28;20037;-33
2022/02/12 05:57:26;;;;;;;12.13;4.13;;;;;;;;;;5029195;28;20064;-34
2022/02/12 05:59:52;;;;;;;10.45;3.70;;;;;;;;;;5029244;28;20037;-34
2022/02/12 06:02:19;;;;;;;9.18;3.42;;;;;;;;;;5028576;28;20029;-34
2022/02/12 06:04:45;;;;;;;9.88;3.65;;;;;;;;;;5023212;28;20029;-33
2022/02/12 06:07:11;;;;;;;10.60;3.85;;;;;;;;;;5028445;28;20490;-33
2022/02/12 06:09:38;;;;;;;8.63;3.72;;;;;;;;;;5029153;28;20040;-34
2022/02/12 06:12:04;;;;;;;13.35;3.95;;;;;;;;;;5029370;28;20108;-34
2022/02/12 06:14:30;;;;;;;12.35;3.53;;;;;;;;;;5029935;28;20505;-34
2022/02/12 06:16:58;;;;;;;10.20;3.38;;;;;;;;;;5029237;28;20029;-33
2022/02/12 06:19:24;;;;;;;9.70;3.05;;;;;;;;;;5019791;28;20108;-34
2022/02/12 06:21:51;;;;;;;10.95;3.75;;;;;;;;;;5018197;28;20478;-33
2022/02/12 06:24:17;;;;;;;9.40;3.30;;;;;;;;;;5028888;28;20037;-33
2022/02/12 06:26:46;;;;;;;8.77;3.10;;;;;;;;;;5028673;28;20152;-33
2022/02/12 06:29:13;;;;;;;13.52;3.35;;;;;;;;;;5028930;28;20037;-34
2022/02/12 06:31:39;;;;;;;11.80;3.47;;;;;;;;;;5028952;28;20045;-34
2022/02/12 06:34:06;;;;;;;10.80;3.22;;;;;;;;;;5027892;28;20109;-34
2022/02/12 06:36:32;;;;;;;10.93;3.63;;;;;;;;;;5029192;28;20022;-34
2022/02/12 06:38:58;;;;;;;17.95;3.95;;;;;;;;;;5029025;28;20475;-34
2022/02/12 06:41:24;;;;;;;12.40;3.40;;;;;;;;;;5028783;28;20115;-33
2022/02/12 06:43:50;;;;;;;9.98;3.20;;;;;;;;;;5028898;28;20442;-34
2022/02/12 06:46:16;;;;;;;13.02;3.05;;;;;;;;;;5029105;28;20029;-33
2022/02/12 06:48:42;;;;;;;13.25;3.20;;;;;;;;;;5027724;28;20041;-34
2022/02/12 06:51:09;;;;;;;10.77;3.33;;;;;;;;;;5029404;28;20557;-34
2022/02/12 06:53:34;;;;;;;12.85;3.60;;;;;;;;;;5029274;28;20029;-33
2022/02/12 06:56:01;;;;;;;10.60;3.25;;;;;;;;;;5028556;28;20029;-33
2022/02/12 06:58:27;;;;;;;7.75;2.60;;;;;;;;;;5029213;28;20032;-34
2022/02/12 07:00:53;;;;;;;7.22;3.17;;;;;;;;;;5030890;28;20585;-34
2022/02/12 07:03:19;;;;;;;16.20;3.50;;;;;;;;;;5032627;28;20120;-32
2022/02/12 07:05:46;;;;;;;14.43;3.35;;;;;;;;;;5032542;28;20033;-33
2022/02/12 07:08:12;;;;;;;10.00;3.35;;;;;;;;;;5032816;28;20036;-33
2022/02/12 07:10:38;;;;;;;14.70;2.97;;;;;;;;;;5032644;28;20030;-34
2022/02/12 07:13:05;;;;;;;16.92;3.88;;;;;;;;;;5032526;28;20049;-34
2022/02/12 07:15:31;;;;;;;9.70;3.10;;;;;;;;;;5031859;28;20021;-34
2022/02/12 07:17:57;;;;;;;10.40;3.00;;;;;;;;;;5031590;28;20040;-34
2022/02/12 07:20:23;;;;;;;9.98;2.80;;;;;;;;;;5031436;28;20117;-34
2022/02/12 07:22:49;;;;;;;18.15;2.97;;;;;;;;;;5032565;28;20471;-34
2022/02/12 07:25:16;;;;;;;12.90;2.70;;;;;;;;;;5031789;28;20125;-34
2022/02/12 07:27:43;;;;;;;14.07;3.25;;;;;;;;;;5031916;28;20069;-34
2022/02/12 07:30:10;;;;;;;5.88;2.60;;;;;;;;;;5032216;28;20480;-34
2022/02/12 07:32:37;;;;;;;14.80;3.78;;;;;;;;;;5032262;28;20040;-34
2022/02/12 07:35:04;;;;;;;12.23;3.28;;;;;;;;;;5031041;28;20060;-34
2022/02/12 07:37:30;;;;;;;11.50;3.28;;;;;;;;;;5032370;28;20067;-34
2022/02/12 07:39:56;;;;;;;14.32;3.50;;;;;;;;;;5031574;28;20029;-34
2022/02/12 07:42:22;;;;;;;10.18;2.72;;;;;;;;;;5031251;28;20402;-34
2022/02/12 07:44:48;;;;;;;9.38;3.72;;;;;;;;;;5031644;28;20017;-35
2022/02/12 07:47:14;;;;;;;15.38;3.85;;;;;;;;;;5032050;28;20658;-33
2022/02/12 07:49:40;;;;;;;12.45;2.92;;;;;;;;;;5030672;28;20041;-34
2022/02/12 07:52:06;;;;;;;19.20;4.35;;;;;;;;;;5031397;28;20057;-33
2022/02/12 07:54:32;;;;;;;12.55;3.08;;;;;;;;;;5031740;28;20026;-34
2022/02/12 07:56:59;;;;;;;9.18;3.08;;;;;;;;;;5031286;28;20025;-34
2022/02/12 07:59:25;;;;;;;14.18;3.83;;;;;;;;;;5031914;28;20048;-34
2022/02/12 08:01:51;;;;;;;15.85;3.67;;;;;;;;;;5031814;28;20013;-34
2022/02/12 08:04:17;;;;;;;14.25;3.55;;;;;;;;;;5030914;28;20420;-34
2022/02/12 08:09:28;;;;;;;11.38;3.08;;;;;;;;;;5031851;28;20061;-34
2022/02/12 08:12:06;;;;;;;18.95;4.03;;;;;;;;;;5030739;28;20079;-34
2022/02/12 08:14:33;;;;;;;30.98;4.65;;;;;;;;;;5030197;28;20044;-35
2022/02/12 08:16:59;;;;;;;17.35;3.65;;;;;;;;;;5029087;28;20103;-35
2022/02/12 08:19:25;;;;;;;18.77;4.35;;;;;;;;;;5011313;28;20111;-35
2022/02/12 08:21:52;;;;;;;16.38;4.07;;;;;;;;;;5026696;28;20571;-35
2022/02/12 08:24:18;;;;;;;16.90;3.10;;;;;;;;;;5010201;28;20112;-35
2022/02/12 08:26:44;;;;;;;21.65;4.43;;;;;;;;;;5024438;28;20030;-35
2022/02/12 08:29:10;;;;;;;21.25;3.28;;;;;;;;;;5029506;28;20399;-35
2022/02/12 08:31:38;;;;;;;18.80;3.70;;;;;;;;;;5021664;28;20113;-35
2022/02/12 08:34:05;;;;;;;17.08;3.20;;;;;;;;;;5025176;28;20074;-35
2022/02/12 08:36:31;;;;;;;18.35;3.83;;;;;;;;;;5028798;28;20107;-35
2022/02/12 08:38:58;;;;;;;13.80;3.20;;;;;;;;;;5029040;28;20037;-34
2022/02/12 08:41:24;;;;;;;11.73;3.53;;;;;;;;;;5029177;28;20065;-35
2022/02/12 08:43:50;;;;;;;13.13;3.20;;;;;;;;;;5029206;28;20474;-34
2022/02/12 08:46:16;;;;;;;10.50;3.15;;;;;;;;;;5028965;28;20548;-35
2022/02/12 08:48:42;;;;;;;15.25;3.00;;;;;;;;;;5029053;28;20617;-35
2022/02/12 08:51:09;;;;;;;12.70;3.10;;;;;;;;;;5029700;28;20084;-35
2022/02/12 08:53:35;;;;;;;17.48;3.58;;;;;;;;;;5029829;28;20484;-34
2022/02/12 08:56:01;;;;;;;12.98;4.05;;;;;;;;;;5027492;28;20071;-35
2022/02/12 08:58:27;;;;;;;18.30;4.75;;;;;;;;;;5030125;28;20025;-34
2022/02/12 09:00:53;;;;;;;14.13;3.42;;;;;;;;;;5027599;28;20022;-34
2022/02/12 09:03:20;;;;;;;16.45;3.40;;;;;;;;;;5029662;28;20025;-36
2022/02/12 09:05:46;;;;;;;17.17;3.20;;;;;;;;;;5029793;28;20036;-35
2022/02/12 09:08:12;;;;;;;15.20;3.40;;;;;;;;;;5029643;28;20036;-35
2022/02/12 09:10:39;;;;;;;17.90;3.72;;;;;;;;;;5029919;28;20116;-36
2022/02/12 09:13:06;;;;;;;23.35;4.35;;;;;;;;;;5029446;28;20057;-35
2022/02/12 09:15:32;;;;;;;26.20;4.45;;;;;;;;;;5029686;28;20026;-35
2022/02/12 09:17:58;;;;;;;14.90;3.92;;;;;;;;;;5028739;28;20048;-34
2022/02/12 09:20:24;;;;;;;17.60;4.03;;;;;;;;;;5029555;28;20681;-35
2022/02/12 09:22:50;;;;;;;18.95;3.90;;;;;;;;;;5028496;28;20029;-35
2022/02/12 09:25:16;;;;;;;16.45;4.18;;;;;;;;;;5029639;28;20554;-34
2022/02/12 09:27:42;;;;;;;16.27;4.20;;;;;;;;;;5028650;28;20036;-35
2022/02/12 09:30:08;;;;;;;13.15;4.22;;;;;;;;;;5028917;28;20769;-34
2022/02/12 09:32:34;;;;;;;18.80;5.47;;;;;;;;;;5029277;28;20029;-35
2022/02/12 09:35:00;;;;;;;18.98;4.47;;;;;;;;;;5029796;28;20108;-34
2022/02/12 09:37:26;;;;;;;14.05;4.00;;;;;;;;;;5028881;28;20104;-34
2022/02/12 09:39:52;;;;;;;18.98;4.55;;;;;;;;;;5028386;28;20087;-34
2022/02/12 09:42:18;;;;;;;12.88;4.32;;;;;;;;;;5029210;28;20116;-34
2022/02/12 09:44:44;;;;;;;16.33;4.65;;;;;;;;;;5029391;28;20034;-34
2022/02/12 09:47:26;;;;;;;11.25;4.30;;;;;;;;;;5030538;28;20034;-34
2022/02/12 09:49:56;;;;;;;13.77;3.78;;;;;;;;;;5028944;28;20072;-34
2022/02/12 09:52:23;;;;;;;11.65;3.47;;;;;;;;;;5029299;28;20029;-34
2022/02/12 09:54:50;;;;;;;16.48;4.05;;;;;;;;;;5029634;28;20518;-35
2022/02/12 09:57:16;;;;;;;14.70;3.65;;;;;;;;;;5029972;28;20040;-34
2022/02/12 09:59:42;;;;;;;16.48;3.50;;;;;;;;;;5029470;28;20025;-34
2022/02/12 10:02:09;;;;;;;14.18;3.90;;;;;;;;;;5029476;28;20029;-34
2022/02/12 10:04:35;;;;;;;13.43;4.32;;;;;;;;;;5029044;28;20033;-34
2022/02/12 10:07:01;;;;;;;14.00;3.20;;;;;;;;;;5028128;28;20026;-34
2022/02/12 10:09:27;;;;;;;14.75;4.13;;;;;;;;;;5028857;28;20443;-34
2022/02/12 10:11:56;;;;;;;13.07;3.75;;;;;;;;;;5029501;28;20030;-34
2022/02/12 10:14:24;;;;;;;11.15;3.42;;;;;;;;;;5027819;28;20099;-34
2022/02/12 10:16:55;;;;;;;12.00;3.30;;;;;;;;;;5028258;28;20472;-34
2022/02/12 10:19:30;;;;;;;12.93;3.22;;;;;;;;;;5028393;28;20018;-34
2022/02/12 10:22:04;;;;;;;11.52;2.90;;;;;;;;;;5027205;28;20037;-34
2022/02/12 10:24:46;;;;;;;9.98;3.30;;;;;;;;;;5026655;28;20411;-34
2022/02/12 10:27:12;;;;;;;12.70;3.33;;;;;;;;;;5028516;28;20574;-34
2022/02/12 10:29:38;;;;;;;14.35;3.78;;;;;;;;;;5027964;28;20029;-34
2022/02/12 10:32:04;;;;;;;9.48;3.30;;;;;;;;;;5021255;28;20051;-34
2022/02/12 10:34:42;;;;;;;12.23;3.17;;;;;;;;;;5011445;28;20116;-34
2022/02/12 10:37:09;;;;;;;10.48;3.33;;;;;;;;;;5028461;28;20114;-34
2022/02/12 10:39:56;;;;;;;10.00;2.20;;;;;;;;;;5028868;28;20030;-32
2022/02/12 10:42:23;;;;;;;11.73;3.00;;;;;;;;;;5028770;28;20049;-33
2022/02/12 10:44:50;;;;;;;12.35;3.08;;;;;;;;;;5028840;28;20038;-33
2022/02/12 10:47:17;;;;;;;12.57;2.92;;;;;;;;;;5028644;28;20033;-33
2022/02/12 10:49:44;;;;;;;11.98;3.10;;;;;;;;;;5029048;28;20399;-33
2022/02/12 10:52:10;;;;;;;10.07;3.38;;;;;;;;;;5028926;28;20112;-33
2022/02/12 10:54:43;;;;;;;10.98;3.30;;;;;;;;;;5029138;28;20105;-34
2022/02/12 10:57:09;;;;;;;8.00;2.78;;;;;;;;;;5028351;28;20033;-33
2022/02/12 10:59:36;;;;;;;9.27;2.75;;;;;;;;;;5028971;28;20029;-34
2022/02/12 11:02:06;;;;;;;8.52;2.60;;;;;;;;;;5023118;28;20435;-34
2022/02/12 11:04:33;;;;;;;8.45;2.80;;;;;;;;;;5028983;28;20022;-34
2022/02/12 11:07:02;;;;;;;8.40;2.50;;;;;;;;;;5024227;28;20124;-34
2022/02/12 11:09:30;;;;;;;13.57;3.42;;;;;;;;;;5027590;28;20048;-34
2022/02/12 11:11:57;;;;;;;7.35;2.22;;;;;;;;;;5028921;28;20026;-34
2022/02/12 11:14:23;;;;;;;8.73;3.05;;;;;;;;;;5029044;28;20060;-34
2022/02/12 11:16:50;;;;;;;10.60;2.90;;;;;;;;;;5028559;28;20072;-34
2022/02/12 11:19:17;;;;;;;10.48;3.15;;;;;;;;;;5028656;28;20080;-35
2022/02/12 11:21:44;;;;;;;9.15;2.60;;;;;;;;;;5029151;28;20020;-35
2022/02/12 11:24:12;;;;;;;8.43;2.80;;;;;;;;;;5029025;28;20119;-34
2022/02/12 11:26:39;;;;;;;10.43;2.92;;;;;;;;;;5028368;28;20459;-33
2022/02/12 11:29:24;;;;;;;9.93;2.58;;;;;;;;;;5028656;28;20506;-34
2022/02/12 11:32:19;;;;;;;9.43;2.50;;;;;;;;;;5028346;28;20033;-34
2022/02/12 11:34:51;;;;;;;8.63;2.35;;;;;;;;;;5015410;28;20515;-34
2022/02/12 11:37:18;;;;;;;8.60;2.72;;;;;;;;;;5028986;28;20128;-33
2022/02/12 11:40:03;;;;;;;8.63;2.38;;;;;;;;;;5028605;28;20065;-33
2022/02/12 11:42:39;;;;;;;7.85;2.60;;;;;;;;;;5028394;28;20060;-34
2022/02/12 11:45:21;;;;;;;13.27;3.60;;;;;;;;;;5028286;28;20479;-34
2022/02/12 11:48:05;;;;;;;10.55;3.28;;;;;;;;;;5022474;28;20033;-33
2022/02/12 11:50:52;;;;;;;9.07;2.92;;;;;;;;;;5032540;28;20044;-34
2022/02/12 11:53:32;;;;;;;10.43;3.20;;;;;;;;;;5021775;28;20048;-33
2022/02/12 11:55:58;;;;;;;14.85;2.85;;;;;;;;;;5031722;28;20021;-35
2022/02/12 11:58:46;;;;;;;11.38;3.08;;;;;;;;;;5032268;28;20104;-34
2022/02/12 12:01:35;;;;;;;8.52;2.60;;;;;;;;;;5030648;28;20500;-34
2022/02/12 12:04:03;;;;;;;13.00;3.35;;;;;;;;;;5026615;28;20041;-34
2022/02/12 12:06:30;;;;;;;10.95;3.13;;;;;;;;;;5031002;28;20159;-34
2022/02/12 12:09:03;;;;;;;10.32;2.67;;;;;;;;;;5031056;28;20048;-34
2022/02/12 12:11:29;;;;;;;11.02;3.42;;;;;;;;;;5030798;28;20033;-35
2022/02/12 12:13:58;;;;;;;11.98;3.17;;;;;;;;;;5031238;28;20056;-34
2022/02/12 12:16:34;;;;;;;12.80;3.10;;;;;;;;;;5030343;28;20061;-34
2022/02/12 12:19:01;;;;;;;12.38;3.33;;;;;;;;;;5030539;28;20514;-35
2022/02/12 12:21:29;;;;;;;11.70;2.80;;;;;;;;;;5019069;28;20427;-35
2022/02/12 12:23:56;;;;;;;7.28;2.22;;;;;;;;;;5020078;28;20025;-34
2022/02/12 12:26:34;;;;;;;9.88;3.17;;;;;;;;;;5030702;28;20472;-34
2022/02/12 12:31:51;;;;;;;7.65;2.35;;;;;;;;;;5030924;28;20113;-34
2022/02/12 12:34:18;;;;;;;10.23;2.15;;;;;;;;;;5030577;28;20026;-34
2022/02/12 12:36:44;;;;;;;9.75;3.03;;;;;;;;;;5027161;28;20033;-34
2022/02/12 12:39:11;;;;;;;10.10;2.78;;;;;;;;;;5030417;28;20025;-35
2022/02/12 12:41:39;;;;;;;11.32;2.70;;;;;;;;;;5029845;28;20397;-35
2022/02/12 12:44:15;;;;;;;9.70;2.75;;;;;;;;;;5029782;28;20040;-35
2022/02/12 12:46:44;;;;;;;12.48;3.10;;;;;;;;;;5030579;28;20025;-36
2022/02/12 12:49:10;;;;;;;10.20;2.25;;;;;;;;;;5029136;28;20514;-38
2022/02/12 12:51:36;;;;;;;8.63;2.47;;;;;;;;;;5030120;28;20561;-35
2022/02/12 12:54:03;;;;;;;9.63;2.72;;;;;;;;;;5031032;28;20029;-35
2022/02/12 12:56:29;;;;;;;9.68;2.83;;;;;;;;;;5027533;28;20060;-35
2022/02/12 12:59:05;;;;;;;7.15;1.85;;;;;;;;;;5029902;28;20144;-34
2022/02/12 13:01:32;;;;;;;8.35;2.70;;;;;;;;;;5029661;28;20034;-34
2022/02/12 13:03:59;;;;;;;8.07;2.70;;;;;;;;;;5025404;28;20026;-35
2022/02/12 13:06:25;;;;;;;8.90;2.20;;;;;;;;;;5028922;28;20033;-36
2022/02/12 13:08:52;;;;;;;8.90;2.40;;;;;;;;;;5030359;28;20108;-35
2022/02/12 13:11:33;;;;;;;5.50;1.90;;;;;;;;;;5030124;28;20563;-35
2022/02/12 13:14:04;;;;;;;7.35;2.33;;;;;;;;;;5010535;28;20030;-35
2022/02/12 13:16:37;;;;;;;14.30;2.00;;;;;;;;;;5019818;28;20076;-35
2022/02/12 13:19:04;;;;;;;16.58;2.50;;;;;;;;;;5010366;28;20034;-34
2022/02/12 13:21:33;;;;;;;12.32;2.08;;;;;;;;;;5025018;28;20434;-35
2022/02/12 13:24:05;;;;;;;12.50;2.53;;;;;;;;;;5029962;28;20582;-35
2022/02/12 13:26:31;;;;;;;9.55;2.13;;;;;;;;;;5030351;28;20022;-34
2022/02/12 13:28:58;;;;;;;18.08;2.33;;;;;;;;;;5030274;28;20032;-35
2022/02/12 13:31:26;;;;;;;10.20;2.80;;;;;;;;;;5030644;28;20029;-33
2022/02/12 13:34:02;;;;;;;13.13;2.17;;;;;;;;;;5029584;28;20028;-34
2022/02/12 13:36:28;;;;;;;14.98;3.15;;;;;;;;;;5027703;28;20086;-35
2022/02/12 13:39:07;;;;;;;12.65;2.33;;;;;;;;;;5028316;28;20033;-35
2022/02/12 13:41:43;;;;;;;14.43;3.00;;;;;;;;;;5027916;28;20037;-34
2022/02/12 13:44:09;;;;;;;8.95;2.58;;;;;;;;;;5028015;28;20506;-36
2022/02/12 13:46:40;;;;;;;10.90;2.10;;;;;;;;;;5028623;28;20112;-35
2022/02/12 13:49:16;;;;;;;10.32;2.40;;;;;;;;;;5026034;28;20065;-35
2022/02/12 13:51:51;;;;;;;10.93;2.97;;;;;;;;;;5026613;28;20053;-34
2022/02/12 13:54:17;;;;;;;9.82;2.13;;;;;;;;;;5026174;28;20033;-34
2022/02/12 13:56:44;;;;;;;10.38;2.67;;;;;;;;;;5028773;28;20391;-34
2022/02/12 13:59:11;;;;;;;11.88;2.58;;;;;;;;;;5030186;28;20388;-34
2022/02/12 14:01:37;;;;;;;13.25;2.22;;;;;;;;;;5029348;28;20108;-34
2022/02/12 14:04:03;;;;;;;10.82;2.63;;;;;;;;;;5028363;28;20120;-33
2022/02/12 14:06:29;;;;;;;13.38;2.30;;;;;;;;;;5029233;28;20124;-33
2022/02/12 14:08:57;;;;;;;6.93;2.75;;;;;;;;;;5028846;28;20084;-33
2022/02/12 14:11:25;;;;;;;11.13;2.25;;;;;;;;;;5027553;28;20034;-33
2022/02/12 14:13:51;;;;;;;9.00;2.35;;;;;;;;;;5028757;28;20032;-34
2022/02/12 14:16:17;;;;;;;11.27;2.17;;;;;;;;;;5028173;28;20133;-34
2022/02/12 14:18:43;;;;;;;10.27;2.15;;;;;;;;;;5025359;28;20211;-34
2022/02/12 14:21:09;;;;;;;8.23;2.22;;;;;;;;;;5028043;28;20543;-34
2022/02/12 14:23:36;;;;;;;9.50;2.45;;;;;;;;;;5028605;28;20021;-34
2022/02/12 14:26:02;;;;;;;11.48;2.28;;;;;;;;;;5028441;28;20120;-33
2022/02/12 14:28:28;;;;;;;8.75;2.15;;;;;;;;;;5028118;28;20037;-34
2022/02/12 14:30:55;;;;;;;8.48;1.85;;;;;;;;;;5028007;28;20041;-34
2022/02/12 14:33:21;;;;;;;10.98;1.92;;;;;;;;;;5023232;28;20038;-34
2022/02/12 14:35:50;;;;;;;13.38;3.05;;;;;;;;;;5028531;28;20025;-35
2022/02/12 14:38:17;;;;;;;8.63;2.40;;;;;;;;;;5028066;28;20061;-34
2022/02/12 14:40:43;;;;;;;8.32;2.47;;;;;;;;;;5028284;28;20018;-34
2022/02/12 14:43:09;;;;;;;8.40;2.25;;;;;;;;;;5027441;28;20750;-34
2022/02/12 14:45:35;;;;;;;7.13;1.98;;;;;;;;;;5028036;28;20045;-33
2022/02/12 14:48:01;;;;;;;9.07;1.65;;;;;;;;;;5024573;28;20141;-34
2022/02/12 14:50:27;;;;;;;8.05;1.90;;;;;;;;;;5028076;28;20397;-34